Flight Track Log - Related Links

Times and Time Zones

All times are in EDT time to prevent confusion due to time zone crossing. See the GGN7280 flight status page for this flight to view local times or setup timezone preferences in your user account.


Time Position Orientation Groundspeed Altitude Reporting Facility
EDT Latitude Longitude Course Direction KTS MPH feet Rate Location/Type
Mon 09:47:52 AM 43.6667 -79.5833 206° Southwest 20 23 700  Level Toronto Center
Mon 09:48:52 AM 43.6167 -79.6167 206° Southwest 170 196 2,300 1,600 Climbing Toronto Center
Mon 09:49:52 AM 43.5833 -79.5667 133° Southeast 180 207 3,900 1,300 Climbing Toronto Center
Mon 09:50:52 AM 43.5667 -79.5000 109° East 220 253 4,900 700 Climbing Toronto Center
Mon 09:51:52 AM 43.5500 -79.4000 103° East 250 288 5,300 950 Climbing Toronto Center
Mon 09:52:52 AM 43.5333 -79.3167 105° East 240 276 6,800 1,300 Climbing Toronto Center
Mon 09:53:52 AM 43.5167 -79.2167 103° East 240 276 7,900 1,050 Climbing Toronto Center
Mon 09:54:52 AM 43.5000 -79.1333 105° East 250 288 8,900 1,000 Climbing Toronto Center
Mon 09:55:52 AM 43.5000 -79.0333 90° East 250 288 9,900 1,050 Climbing Toronto Center
Mon 09:56:52 AM 43.4833 -78.9500 105° East 260 299 11,000 1,000 Climbing Toronto Center
Mon 09:57:52 AM 43.4667 -78.8500 103° East 260 299 11,900 950 Climbing Toronto Center
Mon 09:58:52 AM 43.4667 -78.7333 90° East 270 311 12,900 950 Climbing Toronto Center
Mon 09:59:52 AM 43.4500 -78.6500 105° East 270 311 13,800 840 Climbing Toronto Center
Mon 10:00:32 AM 43.4478 -78.5989 93° East 262 302 14,300 900 Climbing Cleveland Center
Mon 10:01:32 AM 43.4333 -78.4964 101° East 267 307 15,300 1,150 Climbing Cleveland Center
Mon 10:02:32 AM 43.4211 -78.3967 100° East 267 307 16,600 1,200 Climbing Cleveland Center
Mon 10:03:32 AM 43.4089 -78.2942 99° East 267 307 17,700 1,000 Climbing Cleveland Center
Mon 10:04:32 AM 43.3942 -78.1892 101° East 273 314 18,600 950 Climbing Cleveland Center
Mon 10:05:32 AM 43.3814 -78.0811 99° East 279 321 19,600 950 Climbing Cleveland Center
Mon 10:06:32 AM 43.3667 -77.9731 101° East 279 321 20,500 700 Climbing Cleveland Center
Mon 10:07:32 AM 43.3536 -77.8653 99° East 279 321 21,000 250 Climbing Cleveland Center
Mon 10:08:32 AM 43.3383 -77.7517 100° East 285 328 21,000  Level Cleveland Center
Mon 10:10:34 AM 43.3067 -77.5142 100° East 315 362 21,000  Level Boston Center
Mon 10:10:52 AM 43.3000 -77.4333 96° East 320 368 21,000  Level Toronto Center
Mon 10:11:52 AM 43.2667 -77.3167 111° Southeast 320 368 21,000  Level Toronto Center
Mon 10:12:52 AM 43.2500 -77.2000 101° East 320 368 21,000  Level Toronto Center
Mon 10:13:52 AM 43.2333 -77.1000 103° East 320 368 21,000  Level Toronto Center
Mon 10:14:52 AM 43.2333 -76.9500 90° East 310 357 21,000  Level Toronto Center
Mon 10:15:52 AM 43.2167 -76.8500 103° East 310 357 21,000  Level Toronto Center
Mon 10:16:52 AM 43.2000 -76.7333 101° East 310 357 21,000  Level Toronto Center
Mon 10:17:52 AM 43.1667 -76.6167 111° Southeast 310 357 21,000  Level Toronto Center
Mon 10:18:52 AM 43.1500 -76.5000 101° East 300 345 21,000  Level Toronto Center
Mon 10:19:52 AM 43.1500 -76.3833 90° East 300 345 21,000  Level Toronto Center
Mon 10:20:34 AM 43.1442 -76.3447 102° East 305 351 21,000  Level Boston Center
Mon 10:21:34 AM 43.1292 -76.2328 100° East 299 344 21,000  Level Boston Center
Mon 10:22:34 AM 43.1122 -76.1150 101° East 299 344 21,000  Level Boston Center
Mon 10:23:34 AM 43.0950 -76.0031 102° East 299 344 21,000 -300 Level Boston Center
Mon 10:24:34 AM 43.0778 -75.8883 102° East 299 344 20,400 -1,000 Descending Boston Center
Mon 10:25:34 AM 43.0583 -75.7678 102° East 304 350 19,000 -1,400 Descending Boston Center
Mon 10:26:34 AM 43.0408 -75.6475 101° East 310 357 17,600 -1,400 Descending Boston Center
Mon 10:27:34 AM 43.0214 -75.5303 103° East 315 362 16,200 -1,400 Descending Boston Center
Mon 10:28:34 AM 43.0056 -75.4128 100° East 315 362 14,800 -1,450 Descending Boston Center
Mon 10:29:34 AM 42.9878 -75.2983 102° East 315 362 13,300 -1,500 Descending Boston Center
Mon 10:30:34 AM 42.9697 -75.1842 102° East 315 362 11,800 -1,150 Descending Boston Center
Mon 10:31:34 AM 42.9514 -75.0725 103° East 315 362 11,000 -400 Descending Boston Center
Mon 10:32:34 AM 42.9353 -74.9614 101° East 304 350 11,000  Level Boston Center
Mon 10:33:34 AM 42.9186 -74.8558 102° East 299 344 11,000  Level Boston Center
Mon 10:34:46 AM 42.8964 -74.7272 103° East 290 334 11,000  Level Boston Center
Mon 10:35:34 AM 42.8836 -74.6361 101° East 293 337 11,000  Level Boston Center
Mon 10:36:34 AM 42.8667 -74.5336 103° East 288 331 11,000 -150 Level Boston Center
Mon 10:37:34 AM 42.8519 -74.4225 100° East 283 326 10,700 -900 Descending Boston Center
Mon 10:38:34 AM 42.8478 -74.3064 93° East 300 345 9,200 -1,450 Descending Boston Center
Mon 10:39:34 AM 42.8414 -74.1872 94° East 305 351 7,800 -1,440 Descending Boston Center
Mon 10:39:49 AM 42.8397 -74.1617 95° East 309 356 7,400 -1,500 Descending Boston Center
Mon 10:40:34 AM 42.8367 -74.0794 93° East 302 348 6,300 -1,475 Descending Boston Center
Mon 10:40:50 AM 42.8372 -74.0483 89° East 300 345 5,900 -1,400 Descending Boston Center
Mon 10:41:34 AM 42.8342 -73.9689 93° East 292 336 4,900 -1,300 Descending Boston Center
Mon 10:41:50 AM 42.8322 -73.9406 95° East 282 325 4,600 -900 Descending Boston Center
Mon 10:42:34 AM 42.8333 -73.8700 89° East 280 322 4,000 -590 Descending Boston Center
Mon 10:42:51 AM 42.8294 -73.8442 102° East 243 280 4,000  Level Boston Center
Mon 10:43:34 AM 42.8281 -73.7819 92° East 253 291 4,000 -98 Level Boston Center
Mon 10:43:52 AM 42.8264 -73.7536 95° East 226 260 3,900 -700 Descending Boston Center
Mon 10:44:34 AM 42.8208 -73.6911 97° East 240 276 3,300 -800 Descending Boston Center
Mon 10:44:52 AM 42.8231 -73.6658 83° East 233 268 3,100 -300 Descending Boston Center
Mon 10:45:34 AM 42.8175 -73.6147 98° East 229 264 3,000 -98 Descending Boston Center
Mon 10:45:53 AM 42.8053 -73.5889 123° Southeast 216 249 3,000  Level Boston Center
Mon 10:46:34 AM 42.7697 -73.5856 176° South 174 200 3,000 -100 Level Boston Center
Mon 10:46:53 AM 42.7572 -73.5967 213° Southwest 174 200 2,900 -419 Descending Boston Center
Mon 10:48:00 AM 42.7522 -73.6672 265° West 156 180 2,400 -656 Descending Boston Center
Mon 10:49:01 AM 42.7517 -73.7239 269° West 144 166 1,500 -843 Descending Boston Center
Mon 10:50:01 AM 42.7489 -73.7717 265° West 128 147 700 -800 Descending Boston Center

Login

Don't have an account? Register now (free) for customized features, flight alerts, and more!